Time;durP1;ratioP1;P1;durP2;ratioP2;P2;SDS_P1;SDS_P2;PMS_P1;PMS_P2;Temp;Humidity;BMP_temperature;BMP_pressure;BME280_temperature;BME280_humidity;BME280_pressure;Samples;Min_cycle;Max_cycle;Signal;HPM_P1;HPM_P2
2022/12/12 00:01:16;;;;;;;49.83;25.77;;;2.60;99.90;;;;;;5093870;28;20108;-73
2022/12/12 00:03:42;;;;;;;48.22;25.77;;;2.60;99.90;;;;;;5088701;28;20012;-73
2022/12/12 00:06:08;;;;;;;52.78;26.30;;;2.60;99.90;;;;;;5074553;28;20086;-73
2022/12/12 00:08:34;;;;;;;51.65;26.60;;;2.60;99.90;;;;;;5080376;28;20081;-73
2022/12/12 00:10:59;;;;;;;52.65;26.27;;;2.60;99.90;;;;;;5084367;28;20100;-73
2022/12/12 00:13:25;;;;;;;49.13;25.42;;;2.60;99.90;;;;;;5088970;28;20124;-73
2022/12/12 00:15:50;;;;;;;51.20;25.17;;;2.60;99.90;;;;;;5094744;28;20023;-73
2022/12/12 00:18:17;;;;;;;49.40;25.15;;;2.60;99.90;;;;;;5086157;28;20017;-73
2022/12/12 00:20:42;;;;;;;50.42;25.50;;;2.50;99.90;;;;;;5090537;28;20047;-73
2022/12/12 00:23:08;;;;;;;49.20;25.05;;;2.50;99.90;;;;;;5092601;28;20052;-73
2022/12/12 00:25:34;;;;;;;51.42;25.45;;;2.40;99.90;;;;;;5097463;28;20051;-72
2022/12/12 00:28:01;;;;;;;48.83;24.75;;;2.40;99.90;;;;;;5086446;28;20021;-72
2022/12/12 00:30:27;;;;;;;47.95;24.95;;;2.40;99.90;;;;;;5094966;28;20020;-73
2022/12/12 00:32:53;;;;;;;52.58;26.52;;;2.30;99.90;;;;;;5088612;28;20037;-72
2022/12/12 00:35:19;;;;;;;50.17;24.40;;;2.30;99.90;;;;;;5083273;28;20031;-73
2022/12/12 00:37:44;;;;;;;53.50;24.83;;;2.30;99.90;;;;;;5108385;28;20039;-73
2022/12/12 00:40:11;;;;;;;49.13;25.45;;;2.30;99.90;;;;;;5083721;28;20033;-73
2022/12/12 00:42:36;;;;;;;49.50;24.65;;;2.20;99.90;;;;;;5107195;28;20017;-73
2022/12/12 00:45:02;;;;;;;48.72;24.63;;;2.20;99.90;;;;;;5096730;28;20031;-74
2022/12/12 00:47:28;;;;;;;46.97;24.10;;;2.30;99.90;;;;;;5091341;28;20032;-73
2022/12/12 00:49:54;;;;;;;52.70;24.08;;;2.20;99.90;;;;;;5097043;28;20297;-73
2022/12/12 00:52:20;;;;;;;47.78;24.30;;;2.20;99.90;;;;;;5096421;28;20039;-73
2022/12/12 00:54:45;;;;;;;47.47;24.45;;;2.20;99.90;;;;;;5088838;28;20039;-73
2022/12/12 00:57:11;;;;;;;48.60;24.42;;;2.20;99.90;;;;;;5094099;28;20021;-73
2022/12/12 00:59:37;;;;;;;46.35;24.25;;;2.20;99.90;;;;;;5096259;28;20025;-73
2022/12/12 01:02:03;;;;;;;47.58;23.77;;;2.10;99.90;;;;;;5091194;28;20036;-73
2022/12/12 01:04:28;;;;;;;47.70;24.08;;;2.20;99.90;;;;;;5092329;28;20084;-73
2022/12/12 01:06:54;;;;;;;48.30;24.20;;;2.20;99.90;;;;;;5073383;28;20028;-73
2022/12/12 01:09:20;;;;;;;45.97;23.50;;;2.10;99.90;;;;;;5093994;28;20012;-73
2022/12/12 01:11:46;;;;;;;44.67;23.05;;;2.10;99.90;;;;;;5089605;28;20037;-73
2022/12/12 01:14:11;;;;;;;44.60;24.08;;;2.10;99.90;;;;;;5083999;28;20017;-74
2022/12/12 01:16:37;;;;;;;46.97;23.35;;;2.00;99.90;;;;;;5083075;28;20032;-73
2022/12/12 01:19:03;;;;;;;46.08;23.60;;;2.10;99.90;;;;;;5085282;28;20016;-73
2022/12/12 01:21:29;;;;;;;48.35;24.02;;;2.00;99.90;;;;;;5096296;28;20074;-73
2022/12/12 01:23:55;;;;;;;47.75;24.10;;;2.00;99.90;;;;;;5096664;28;20039;-73
2022/12/12 01:26:23;;;;;;;47.17;22.98;;;2.00;99.90;;;;;;5096506;28;20037;-73
2022/12/12 01:28:49;;;;;;;46.42;23.20;;;2.00;99.90;;;;;;5095688;28;20013;-73
2022/12/12 01:31:15;;;;;;;47.83;22.83;;;1.90;99.90;;;;;;5096126;28;20073;-73
2022/12/12 01:33:44;;;;;;;45.50;23.80;;;1.90;99.90;;;;;;5095871;28;20020;-73
2022/12/12 01:36:15;;;;;;;47.92;24.27;;;1.80;99.90;;;;;;5096402;28;20005;-73
2022/12/12 01:38:49;;;;;;;56.00;24.88;;;1.80;99.90;;;;;;5085085;28;20013;-73
2022/12/12 01:41:15;;;;;;;46.63;23.88;;;1.80;99.90;;;;;;5096001;28;20020;-73
2022/12/12 01:43:41;;;;;;;48.70;24.33;;;1.70;99.90;;;;;;5096266;28;20017;-73
2022/12/12 01:46:32;;;;;;;49.03;24.15;;;1.70;99.90;;;;;;5094499;28;20080;-73
2022/12/12 01:49:05;;;;;;;46.33;22.92;;;1.60;99.90;;;;;;5089917;28;20017;-73
2022/12/12 01:51:31;;;;;;;47.35;24.00;;;1.60;99.90;;;;;;5077968;28;20021;-73
2022/12/12 01:54:03;;;;;;;48.28;23.58;;;1.60;99.90;;;;;;5082957;28;20136;-73
2022/12/12 01:56:30;;;;;;;44.78;23.63;;;1.50;99.90;;;;;;5091775;28;20080;-73
2022/12/12 01:58:58;;;;;;;45.83;23.88;;;1.50;99.90;;;;;;5088033;28;20130;-74
2022/12/12 02:01:24;;;;;;;48.88;22.85;;;1.40;99.90;;;;;;5073973;28;20079;-73
2022/12/12 02:03:49;;;;;;;47.90;23.63;;;1.40;99.90;;;;;;5095521;28;20020;-72
2022/12/12 02:06:21;;;;;;;47.80;23.30;;;1.30;99.90;;;;;;5081757;28;20045;-72
2022/12/12 02:08:48;;;;;;;50.30;23.50;;;1.30;99.90;;;;;;5094432;28;20078;-73
2022/12/12 02:11:14;;;;;;;48.28;23.52;;;1.20;99.90;;;;;;5094899;28;20100;-72
2022/12/12 02:13:40;;;;;;;52.65;23.83;;;1.20;99.90;;;;;;5092632;28;20048;-72
2022/12/12 02:16:24;;;;;;;47.08;23.65;;;1.10;99.90;;;;;;5086733;28;20136;-72
2022/12/12 02:19:03;;;;;;;36.58;19.77;;;1.10;99.90;;;;;;5091928;28;20021;-72
2022/12/12 02:21:48;;;;;;;52.08;24.00;;;1.10;99.90;;;;;;5089327;28;20077;-72
2022/12/12 02:24:13;;;;;;;48.53;24.67;;;1.00;99.90;;;;;;5075613;28;20009;-73
2022/12/12 02:26:54;;;;;;;49.97;23.92;;;1.00;99.90;;;;;;5089630;28;20104;-72
2022/12/12 02:29:45;;;;;;;54.95;25.13;;;0.90;99.90;;;;;;5095517;28;20029;-72
2022/12/12 02:32:36;;;;;;;56.13;25.67;;;0.90;99.90;;;;;;5095210;28;20032;-72
2022/12/12 02:35:08;;;;;;;57.17;26.35;;;0.90;99.90;;;;;;5095724;28;20020;-72
2022/12/12 02:37:47;;;;;;;54.95;25.52;;;0.80;99.90;;;;;;5077401;28;20017;-73
2022/12/12 02:40:26;;;;;;;57.25;26.27;;;0.80;99.90;;;;;;5087044;28;20009;-72
2022/12/12 02:43:13;;;;;;;56.17;26.48;;;0.80;99.90;;;;;;5095684;28;20036;-72
2022/12/12 02:45:54;;;;;;;60.15;28.08;;;0.80;99.90;;;;;;5082729;28;20036;-72
2022/12/12 02:48:39;;;;;;;58.28;27.88;;;0.80;99.90;;;;;;5095653;28;20009;-72
2022/12/12 02:51:07;;;;;;;56.28;27.55;;;0.80;99.90;;;;;;5080177;28;20099;-72
2022/12/12 02:53:33;;;;;;;56.30;27.08;;;0.80;99.90;;;;;;5079182;28;20036;-72
2022/12/12 02:56:07;;;;;;;61.83;27.60;;;0.80;99.90;;;;;;5082708;28;20020;-72
2022/12/12 02:58:36;;;;;;;58.10;27.33;;;0.80;99.90;;;;;;5091198;28;20060;-72
2022/12/12 03:01:47;;;;;;;59.53;27.48;;;0.80;99.90;;;;;;5094960;28;20013;-72
2022/12/12 03:08:01;;;;;;;57.42;27.05;;;0.80;99.90;;;;;;5083743;28;20043;-72
2022/12/12 03:10:57;;;;;;;55.55;27.23;;;0.80;99.90;;;;;;5080417;28;20089;-72
2022/12/12 03:13:47;;;;;;;58.88;27.33;;;0.80;99.90;;;;;;5085134;28;20051;-73
2022/12/12 03:16:37;;;;;;;52.90;26.13;;;0.80;99.90;;;;;;5101893;28;20070;-72
2022/12/12 03:19:11;;;;;;;57.78;26.33;;;0.70;99.90;;;;;;5091557;28;20084;-71
2022/12/12 03:21:42;;;;;;;55.63;26.33;;;0.70;99.90;;;;;;5096710;28;20073;-72
2022/12/12 03:24:49;;;;;;;56.88;27.10;;;0.70;99.90;;;;;;5109295;28;20035;-73
2022/12/12 03:27:41;;;;;;;57.97;27.23;;;0.70;99.90;;;;;;5056819;28;20025;-72
2022/12/12 03:30:13;;;;;;;54.50;25.65;;;0.60;99.90;;;;;;5084369;28;20115;-72
2022/12/12 03:32:56;;;;;;;58.65;26.42;;;0.60;99.90;;;;;;5088374;28;20080;-73
2022/12/12 03:35:27;;;;;;;49.42;24.85;;;0.60;99.90;;;;;;5082436;28;20017;-72
2022/12/12 03:38:00;;;;;;;56.47;26.48;;;0.60;99.90;;;;;;5091630;28;20035;-73
2022/12/12 03:40:43;;;;;;;55.25;25.60;;;0.50;99.90;;;;;;5096094;28;20043;-71
2022/12/12 03:43:37;;;;;;;56.70;25.48;;;0.60;99.90;;;;;;5084359;28;20364;-72
2022/12/12 03:46:12;;;;;;;62.53;26.80;;;0.50;99.90;;;;;;5094893;28;20051;-72
2022/12/12 03:48:57;;;;;;;60.15;26.73;;;0.50;99.90;;;;;;5099961;28;20044;-73
2022/12/12 03:51:28;;;;;;;41.20;19.43;;;0.50;99.90;;;;;;5081418;28;20021;-72
2022/12/12 03:54:28;;;;;;;54.00;25.63;;;0.50;99.90;;;;;;5090656;28;20087;-72
2022/12/12 03:57:00;;;;;;;52.22;25.25;;;0.40;99.90;;;;;;5053241;28;20042;-72
2022/12/12 03:59:33;;;;;;;54.85;26.17;;;0.30;99.90;;;;;;5104475;28;20088;-72
2022/12/12 04:02:06;;;;;;;57.47;25.67;;;0.30;99.90;;;;;;5092672;28;20089;-72
2022/12/12 04:04:35;;;;;;;58.00;26.15;;;0.30;99.90;;;;;;5097778;28;20024;-73
2022/12/12 04:07:28;;;;;;;54.97;26.65;;;0.30;99.90;;;;;;5084667;28;20176;-72
2022/12/12 04:13:02;;;;;;;48.63;24.40;;;0.20;99.90;;;;;;5096351;28;20063;-72
2022/12/12 04:15:34;;;;;;;57.67;26.17;;;0.20;99.90;;;;;;5070005;28;20016;-73
2022/12/12 04:18:18;;;;;;;59.35;27.40;;;0.20;99.90;;;;;;5091531;28;20023;-73
2022/12/12 04:24:31;;;;;;;53.22;26.27;;;0.20;99.90;;;;;;5077487;28;20048;-72
2022/12/12 04:27:28;;;;;;;52.78;25.88;;;0.10;99.90;;;;;;5095649;28;20020;-72
2022/12/12 04:30:01;;;;;;;56.38;27.00;;;0.10;99.90;;;;;;5076845;28;20033;-73
2022/12/12 04:32:49;;;;;;;54.63;26.02;;;0.10;99.90;;;;;;5095518;28;20036;-73
2022/12/12 04:35:16;;;;;;;54.30;25.52;;;0.10;99.90;;;;;;5094078;28;20044;-73
2022/12/12 04:37:47;;;;;;;61.38;27.05;;;0.00;99.90;;;;;;5093256;28;20015;-73
2022/12/12 04:40:22;;;;;;;60.08;26.05;;;0.00;99.90;;;;;;5092005;28;20043;-74
2022/12/12 04:42:56;;;;;;;53.97;26.25;;;0.00;99.90;;;;;;5095140;28;20012;-73
2022/12/12 04:45:29;;;;;;;53.67;25.38;;;0.00;99.90;;;;;;5096742;28;20075;-74
2022/12/12 04:47:56;;;;;;;56.13;26.67;;;-0.10;99.90;;;;;;5087614;28;20012;-72
2022/12/12 04:50:26;;;;;;;73.68;30.83;;;-0.10;99.90;;;;;;5088911;28;20024;-73
2022/12/12 04:52:54;;;;;;;58.88;28.25;;;-0.10;99.90;;;;;;5096435;28;20050;-73
2022/12/12 04:55:28;;;;;;;61.13;27.63;;;-0.10;99.90;;;;;;5098303;28;20270;-74
2022/12/12 04:57:54;;;;;;;56.28;27.02;;;-0.10;99.90;;;;;;5099666;28;20036;-74
2022/12/12 05:00:23;;;;;;;51.55;25.83;;;-0.10;99.90;;;;;;5098152;28;20028;-72
2022/12/12 05:02:48;;;;;;;62.30;28.00;;;-0.10;99.90;;;;;;5097623;28;20043;-73
2022/12/12 05:05:37;;;;;;;57.70;26.05;;;-0.10;99.90;;;;;;5096373;28;20032;-72
2022/12/12 05:08:16;;;;;;;54.28;25.85;;;-0.20;99.90;;;;;;5095234;28;20044;-73
2022/12/12 05:10:49;;;;;;;59.65;25.70;;;-0.20;99.90;;;;;;5096571;28;20040;-72
2022/12/12 05:13:18;;;;;;;57.20;25.58;;;-0.20;99.90;;;;;;5072998;28;20037;-72
2022/12/12 05:15:46;;;;;;;57.10;27.10;;;-0.20;99.90;;;;;;5100119;28;20069;-73
2022/12/12 05:18:12;;;;;;;61.15;27.08;;;-0.30;99.90;;;;;;5098106;28;20013;-72
2022/12/12 05:20:38;;;;;;;48.20;25.02;;;-0.30;99.90;;;;;;5104511;28;20032;-73
2022/12/12 05:23:04;;;;;;;53.38;25.65;;;-0.30;99.90;;;;;;5101620;28;20097;-73
2022/12/12 05:25:30;;;;;;;52.95;26.13;;;-0.30;99.90;;;;;;5096084;28;20020;-73
2022/12/12 05:27:56;;;;;;;54.90;25.52;;;-0.30;99.90;;;;;;5096836;28;20027;-73
2022/12/12 05:30:22;;;;;;;49.50;24.60;;;-0.40;99.90;;;;;;5081366;28;20017;-74
2022/12/12 05:32:49;;;;;;;54.88;25.63;;;-0.40;99.90;;;;;;5089454;28;20037;-72
2022/12/12 05:35:15;;;;;;;54.38;25.33;;;-0.40;99.90;;;;;;5089921;28;21062;-72
2022/12/12 05:37:41;;;;;;;58.30;26.13;;;-0.50;99.90;;;;;;5095973;28;20038;-74
2022/12/12 05:40:08;;;;;;;55.05;24.65;;;-0.50;99.90;;;;;;5105304;28;20027;-73
2022/12/12 05:42:34;;;;;;;53.00;25.10;;;-0.50;99.90;;;;;;5101713;28;20041;-73
2022/12/12 05:44:59;;;;;;;53.95;26.50;;;-0.50;99.90;;;;;;5102802;28;20012;-73
2022/12/12 05:47:25;;;;;;;52.95;25.38;;;-0.60;99.90;;;;;;5085334;28;20027;-72
2022/12/12 05:49:51;;;;;;;52.17;24.58;;;-0.60;99.90;;;;;;5086885;28;20087;-71
2022/12/12 05:52:17;;;;;;;53.20;24.90;;;-0.60;99.90;;;;;;5095549;28;20021;-73
2022/12/12 05:54:43;;;;;;;49.88;24.73;;;-0.70;99.90;;;;;;5087622;28;20086;-72
2022/12/12 05:57:09;;;;;;;57.28;25.80;;;-0.70;99.90;;;;;;5087321;28;20009;-72
2022/12/12 05:59:34;;;;;;;54.22;25.25;;;-0.70;99.90;;;;;;5087447;28;20012;-73
2022/12/12 06:02:00;;;;;;;55.20;26.33;;;-0.70;99.90;;;;;;5082996;28;20032;-73
2022/12/12 06:04:26;;;;;;;57.22;25.27;;;-0.70;99.90;;;;;;5082979;28;20017;-74
2022/12/12 06:06:51;;;;;;;55.63;24.75;;;-0.70;99.90;;;;;;5097225;28;20016;-74
2022/12/12 06:09:17;;;;;;;50.97;25.02;;;-0.80;99.90;;;;;;5096114;28;20296;-73
2022/12/12 06:11:43;;;;;;;52.13;24.75;;;-0.80;99.90;;;;;;5092926;28;20028;-73
2022/12/12 06:14:09;;;;;;;54.03;24.52;;;-0.80;99.90;;;;;;5094382;28;20024;-73
2022/12/12 06:16:35;;;;;;;55.78;26.17;;;-0.80;99.90;;;;;;5095034;28;20076;-72
2022/12/12 06:19:01;;;;;;;55.58;25.25;;;-0.80;99.90;;;;;;5092203;28;20132;-72
2022/12/12 06:21:27;;;;;;;49.30;24.25;;;-0.80;99.90;;;;;;5085209;28;20033;-72
2022/12/12 06:23:53;;;;;;;54.65;24.83;;;-0.90;99.90;;;;;;5083098;28;20017;-73
2022/12/12 06:26:20;;;;;;;54.50;24.42;;;-0.90;99.90;;;;;;5086312;28;20051;-71
2022/12/12 06:28:46;;;;;;;50.38;24.38;;;-0.90;99.90;;;;;;5096784;28;20021;-71
2022/12/12 06:31:13;;;;;;;50.95;23.90;;;-0.90;99.90;;;;;;5097701;28;20046;-71
2022/12/12 06:33:40;;;;;;;50.35;23.30;;;-0.90;99.90;;;;;;5082964;28;20039;-73
2022/12/12 06:36:10;;;;;;;51.72;24.33;;;-1.00;99.90;;;;;;5085797;28;20013;-71
2022/12/12 06:38:36;;;;;;;55.05;24.38;;;-1.00;99.90;;;;;;5091217;28;20032;-71
2022/12/12 06:41:11;;;;;;;51.28;23.38;;;-1.00;99.90;;;;;;5088032;28;20038;-71
2022/12/12 06:43:36;;;;;;;51.60;23.98;;;-1.00;99.90;;;;;;5094857;28;20013;-72
2022/12/12 06:46:04;;;;;;;53.75;24.73;;;-1.00;99.90;;;;;;5097296;28;20056;-72
2022/12/12 06:48:32;;;;;;;49.40;24.35;;;-1.00;99.90;;;;;;5093560;28;20013;-72
2022/12/12 06:50:58;;;;;;;56.00;25.25;;;-1.10;99.90;;;;;;5089023;28;20055;-72
2022/12/12 06:53:25;;;;;;;52.55;23.95;;;-1.10;99.90;;;;;;5092493;28;20044;-72
2022/12/12 06:55:51;;;;;;;54.42;24.42;;;-1.10;99.90;;;;;;5089694;28;20040;-72
2022/12/12 06:58:17;;;;;;;53.70;25.10;;;-1.10;99.90;;;;;;5096002;28;20013;-72
2022/12/12 07:00:42;;;;;;;52.47;23.48;;;-1.10;99.90;;;;;;5094176;28;20040;-73
2022/12/12 07:03:12;;;;;;;52.75;23.75;;;-1.10;99.90;;;;;;5089457;28;20075;-73
2022/12/12 07:05:37;;;;;;;51.55;23.20;;;-1.20;99.90;;;;;;5090242;28;20088;-73
2022/12/12 07:08:03;;;;;;;53.40;25.15;;;-1.20;99.90;;;;;;5086992;28;20036;-73
2022/12/12 07:10:30;;;;;;;51.63;23.63;;;-1.20;99.90;;;;;;5088964;28;20025;-73
2022/12/12 07:12:56;;;;;;;48.95;23.70;;;-1.20;99.90;;;;;;5085544;28;20039;-72
2022/12/12 07:15:21;;;;;;;55.10;24.48;;;-1.20;99.90;;;;;;5091490;28;20021;-72
2022/12/12 07:17:50;;;;;;;52.80;24.13;;;-1.30;99.90;;;;;;5098183;28;20031;-72
2022/12/12 07:20:16;;;;;;;50.13;24.20;;;-1.30;99.90;;;;;;5103758;28;20024;-71
2022/12/12 07:22:42;;;;;;;53.03;24.27;;;-1.30;99.90;;;;;;5086702;28;20099;-72
2022/12/12 07:25:08;;;;;;;47.22;23.02;;;-1.30;99.90;;;;;;5085546;28;20008;-72
2022/12/12 07:27:33;;;;;;;52.97;24.83;;;-1.30;99.90;;;;;;5093758;28;20021;-72
2022/12/12 07:29:59;;;;;;;50.58;24.17;;;-1.30;99.90;;;;;;5093325;28;20012;-72
2022/12/12 07:32:25;;;;;;;51.33;23.50;;;-1.30;99.90;;;;;;5087654;28;20013;-71
2022/12/12 07:34:51;;;;;;;57.70;25.08;;;-1.30;99.90;;;;;;5081648;28;20070;-69
2022/12/12 07:37:17;;;;;;;54.42;24.63;;;-1.30;99.90;;;;;;5074146;28;20020;-69
2022/12/12 07:39:42;;;;;;;66.68;25.85;;;-1.30;99.90;;;;;;5070997;28;20025;-69
2022/12/12 07:42:08;;;;;;;56.15;25.08;;;-1.40;99.90;;;;;;5063700;28;20078;-69
2022/12/12 07:44:34;;;;;;;62.50;24.45;;;-1.40;99.90;;;;;;5057498;28;20398;-69
2022/12/12 07:47:00;;;;;;;53.20;23.73;;;-1.40;99.90;;;;;;5068803;28;20032;-70
2022/12/12 07:49:27;;;;;;;61.03;25.30;;;-1.40;99.90;;;;;;5061987;28;20024;-69
2022/12/12 07:51:53;;;;;;;51.60;24.27;;;-1.40;99.90;;;;;;5068994;28;20036;-70
2022/12/12 07:54:19;;;;;;;56.50;25.15;;;-1.30;99.90;;;;;;5070244;28;20089;-70
2022/12/12 07:56:45;;;;;;;61.85;25.15;;;-1.40;99.90;;;;;;5072474;28;20020;-71
2022/12/12 07:59:11;;;;;;;57.63;24.38;;;-1.40;99.90;;;;;;5066942;28;20466;-70
2022/12/12 08:01:37;;;;;;;53.97;24.40;;;-1.40;99.90;;;;;;5053549;28;20044;-71
2022/12/12 08:04:04;;;;;;;55.80;24.88;;;-1.40;99.90;;;;;;5059374;28;20498;-69
2022/12/12 08:06:29;;;;;;;53.75;24.98;;;-1.40;99.90;;;;;;5067313;28;20048;-68
2022/12/12 08:08:55;;;;;;;56.60;24.48;;;-1.40;99.90;;;;;;5070463;28;20063;-68
2022/12/12 08:11:23;;;;;;;54.92;24.23;;;-1.40;99.90;;;;;;5061647;28;20561;-69
2022/12/12 08:13:49;;;;;;;57.47;25.05;;;-1.40;99.90;;;;;;5069059;28;20033;-68
2022/12/12 08:16:21;;;;;;;59.78;25.75;;;-1.30;99.90;;;;;;5064361;28;20056;-69
2022/12/12 08:18:47;;;;;;;61.05;26.20;;;-1.30;99.90;;;;;;5067544;28;20040;-69
2022/12/12 08:21:15;;;;;;;55.65;24.75;;;-1.30;99.90;;;;;;5054601;28;20560;-69
2022/12/12 08:23:41;;;;;;;57.78;24.90;;;-1.30;99.90;;;;;;5058876;28;20048;-68
2022/12/12 08:26:13;;;;;;;60.33;25.35;;;-1.30;99.90;;;;;;5058128;28;20035;-68
2022/12/12 08:28:48;;;;;;;61.25;24.45;;;-1.30;99.90;;;;;;5062002;28;20043;-69
2022/12/12 08:31:15;;;;;;;58.28;24.58;;;-1.20;99.90;;;;;;5054582;28;20037;-69
2022/12/12 08:33:41;;;;;;;57.75;25.00;;;-1.20;99.90;;;;;;5048070;28;20037;-69
2022/12/12 08:36:30;;;;;;;54.90;24.15;;;-1.20;99.90;;;;;;5067869;28;20411;-69
2022/12/12 08:39:05;;;;;;;57.83;25.70;;;-1.20;99.90;;;;;;5072100;28;20043;-68
2022/12/12 08:41:32;;;;;;;62.38;25.00;;;-1.10;99.90;;;;;;5070545;28;20039;-69
2022/12/12 08:43:58;;;;;;;59.00;24.92;;;-1.10;99.90;;;;;;5063593;28;20425;-68
2022/12/12 08:46:23;;;;;;;57.72;25.63;;;-1.10;99.90;;;;;;5072201;28;20107;-68
2022/12/12 08:48:49;;;;;;;55.83;25.02;;;-1.10;99.90;;;;;;5065973;28;20161;-69
2022/12/12 08:51:16;;;;;;;60.00;25.58;;;-1.00;99.90;;;;;;5071014;28;20021;-69
2022/12/12 08:53:50;;;;;;;58.13;25.50;;;-1.00;99.90;;;;;;5067363;28;20036;-70
2022/12/12 08:56:17;;;;;;;57.15;25.23;;;-1.00;99.90;;;;;;5069263;28;20032;-69
2022/12/12 08:58:43;;;;;;;56.22;24.73;;;-1.00;99.90;;;;;;5069133;28;20028;-69
2022/12/12 09:01:15;;;;;;;57.70;25.27;;;-0.90;99.90;;;;;;5069186;28;20045;-69
2022/12/12 09:03:40;;;;;;;62.30;25.80;;;-0.90;99.90;;;;;;5070555;28;20373;-69
2022/12/12 09:06:09;;;;;;;60.42;25.15;;;-0.90;99.90;;;;;;5069009;28;20021;-69
2022/12/12 09:08:35;;;;;;;60.47;24.33;;;-0.80;99.90;;;;;;5072043;28;20008;-69
2022/12/12 09:11:02;;;;;;;60.55;26.20;;;-0.80;99.90;;;;;;5061672;28;20029;-68
2022/12/12 09:13:28;;;;;;;60.25;26.20;;;-0.80;99.90;;;;;;5072016;28;20072;-69
2022/12/12 09:15:54;;;;;;;63.22;26.25;;;-0.70;99.90;;;;;;5071179;28;20040;-70
2022/12/12 09:18:21;;;;;;;58.33;25.02;;;-0.70;99.90;;;;;;5071237;28;20123;-69
2022/12/12 09:20:48;;;;;;;66.18;26.63;;;-0.70;99.90;;;;;;5071251;28;20112;-69
2022/12/12 09:23:15;;;;;;;58.92;25.25;;;-0.60;99.90;;;;;;5066708;28;20481;-69
2022/12/12 09:25:41;;;;;;;64.57;26.33;;;-0.60;99.90;;;;;;5058033;28;20335;-69
2022/12/12 09:28:07;;;;;;;67.38;29.30;;;-0.50;99.90;;;;;;5059224;28;20031;-69
2022/12/12 09:30:33;;;;;;;73.72;28.77;;;-0.50;99.90;;;;;;5061644;28;20016;-70
2022/12/12 09:32:58;;;;;;;68.13;29.58;;;-0.40;99.90;;;;;;5064219;28;20147;-69
2022/12/12 09:35:24;;;;;;;70.57;29.75;;;-0.30;99.90;;;;;;5054618;28;20066;-69
2022/12/12 09:37:51;;;;;;;69.05;28.50;;;-0.30;99.90;;;;;;5062297;28;20016;-69
2022/12/12 09:40:24;;;;;;;71.13;28.30;;;-0.30;99.90;;;;;;5077714;28;20059;-69
2022/12/12 09:42:50;;;;;;;72.00;29.85;;;-0.20;99.90;;;;;;5066299;28;20033;-69
2022/12/12 09:45:18;;;;;;;66.50;30.30;;;-0.20;99.90;;;;;;5070047;28;20036;-70
2022/12/12 09:47:52;;;;;;;71.68;30.85;;;-0.20;99.90;;;;;;5065321;28;20044;-70
2022/12/12 09:50:32;;;;;;;76.93;32.95;;;-0.10;99.90;;;;;;5069800;28;20059;-69
2022/12/12 09:53:03;;;;;;;74.40;30.67;;;-0.10;99.90;;;;;;5070282;28;20032;-70
2022/12/12 09:55:40;;;;;;;72.38;30.63;;;-0.10;99.90;;;;;;5063294;28;20046;-70
2022/12/12 09:58:15;;;;;;;76.82;33.90;;;-0.10;99.90;;;;;;5071067;28;20430;-69
2022/12/12 10:00:47;;;;;;;66.03;30.52;;;0.00;99.90;;;;;;5070671;28;20573;-69
2022/12/12 10:03:37;;;;;;;67.03;29.52;;;0.00;99.90;;;;;;5070652;28;20048;-70
2022/12/12 10:06:06;;;;;;;70.43;29.90;;;0.00;99.90;;;;;;5070801;28;20067;-70
2022/12/12 10:08:54;;;;;;;67.65;30.23;;;0.10;99.90;;;;;;5057610;28;20620;-70
2022/12/12 10:11:49;;;;;;;67.55;29.27;;;0.20;99.90;;;;;;5066460;28;20104;-70
2022/12/12 10:14:29;;;;;;;62.75;28.05;;;0.20;99.90;;;;;;5065319;28;20628;-70
2022/12/12 10:16:56;;;;;;;57.53;26.40;;;0.20;99.90;;;;;;5063980;28;20036;-70
2022/12/12 10:19:27;;;;;;;61.05;27.58;;;0.30;99.90;;;;;;5061392;28;20239;-70
2022/12/12 10:22:01;;;;;;;63.08;26.52;;;0.30;99.90;;;;;;5071517;28;20016;-70
2022/12/12 10:24:40;;;;;;;57.03;25.98;;;0.30;99.90;;;;;;5071395;28;20802;-70
2022/12/12 10:27:11;;;;;;;55.13;25.50;;;0.40;99.90;;;;;;5070706;28;20052;-70
2022/12/12 10:29:40;;;;;;;57.03;24.70;;;0.40;99.90;;;;;;5064867;28;20386;-70
2022/12/12 10:32:29;;;;;;;56.72;25.27;;;0.40;99.90;;;;;;5066391;28;20129;-70
2022/12/12 10:35:01;;;;;;;55.83;26.20;;;0.50;99.90;;;;;;5068123;28;20032;-70
2022/12/12 10:37:46;;;;;;;51.78;24.38;;;0.60;99.90;;;;;;5068587;28;20500;-70
2022/12/12 10:40:20;;;;;;;55.90;24.40;;;0.60;99.90;;;;;;5066845;28;20452;-69
2022/12/12 10:42:58;;;;;;;55.08;24.35;;;0.70;99.90;;;;;;5067720;28;20021;-69
2022/12/12 10:45:37;;;;;;;47.10;23.60;;;0.70;99.90;;;;;;5070330;28;20122;-70
2022/12/12 10:48:04;;;;;;;51.78;23.08;;;0.80;99.90;;;;;;5061645;28;20058;-69
2022/12/12 10:50:48;;;;;;;52.60;24.45;;;0.80;99.90;;;;;;5070433;28;20374;-69
2022/12/12 10:53:13;;;;;;;51.58;24.17;;;0.80;99.90;;;;;;5061919;28;20047;-69
2022/12/12 10:55:51;;;;;;;50.95;23.38;;;0.90;99.90;;;;;;5069909;28;20020;-69
2022/12/12 10:58:17;;;;;;;52.97;23.45;;;0.90;99.90;;;;;;5060647;28;20016;-70
2022/12/12 11:00:45;;;;;;;48.47;22.27;;;0.90;99.90;;;;;;5064569;28;20496;-70
2022/12/12 11:03:25;;;;;;;54.03;24.73;;;0.90;99.90;;;;;;5066386;28;20139;-70
2022/12/12 11:05:52;;;;;;;47.03;22.30;;;1.00;99.90;;;;;;5066598;28;20591;-70
2022/12/12 11:08:32;;;;;;;49.63;23.77;;;1.00;99.90;;;;;;5070299;28;20029;-69
2022/12/12 11:11:19;;;;;;;52.40;22.13;;;1.10;99.90;;;;;;5070829;28;20466;-70
2022/12/12 11:13:49;;;;;;;49.25;21.55;;;1.20;99.90;;;;;;5073457;28;20029;-70
2022/12/12 11:16:37;;;;;;;47.10;22.38;;;1.20;99.90;;;;;;5062777;28;20082;-71
2022/12/12 11:19:17;;;;;;;47.38;21.40;;;1.20;99.90;;;;;;5048555;28;20055;-69
2022/12/12 11:21:44;;;;;;;42.60;20.48;;;1.20;99.90;;;;;;5071036;28;20613;-69
2022/12/12 11:24:28;;;;;;;43.28;20.92;;;1.30;99.90;;;;;;5073134;28;20538;-70
2022/12/12 11:27:01;;;;;;;41.75;19.77;;;1.30;99.90;;;;;;5069180;28;20666;-70
2022/12/12 11:29:42;;;;;;;45.60;22.25;;;1.30;99.90;;;;;;5054053;28;20702;-70
2022/12/12 11:32:15;;;;;;;39.75;20.23;;;1.40;99.90;;;;;;5068833;28;20037;-70
2022/12/12 11:34:45;;;;;;;42.35;19.92;;;1.40;99.90;;;;;;5071146;28;20024;-69
2022/12/12 11:37:18;;;;;;;39.10;19.05;;;1.40;99.90;;;;;;5067300;28;20048;-69
2022/12/12 11:39:47;;;;;;;38.15;19.33;;;1.40;99.90;;;;;;5066947;28;20037;-70
2022/12/12 11:42:13;;;;;;;40.88;19.48;;;1.50;99.90;;;;;;5071717;28;20673;-70
2022/12/12 11:44:41;;;;;;;43.38;20.80;;;1.50;99.90;;;;;;5074357;28;20020;-69
2022/12/12 11:47:29;;;;;;;44.75;20.77;;;1.60;99.90;;;;;;5073065;28;20024;-70
2022/12/12 11:49:59;;;;;;;45.45;21.48;;;1.60;99.90;;;;;;5064816;28;21110;-72
2022/12/12 11:52:30;;;;;;;42.40;20.70;;;1.60;99.90;;;;;;5070467;28;20063;-70
2022/12/12 11:54:57;;;;;;;40.47;19.70;;;1.70;99.90;;;;;;5066294;28;20041;-70
2022/12/12 11:57:35;;;;;;;40.33;19.95;;;1.70;99.90;;;;;;5071123;28;20047;-70
2022/12/12 12:00:18;;;;;;;43.08;20.00;;;1.70;99.90;;;;;;5067655;28;20035;-70
2022/12/12 12:03:07;;;;;;;42.53;20.60;;;1.70;99.90;;;;;;5062153;28;20504;-69
2022/12/12 12:05:51;;;;;;;43.55;20.58;;;1.70;99.90;;;;;;5069257;28;20366;-69
2022/12/12 12:08:39;;;;;;;45.60;20.60;;;1.80;99.90;;;;;;5072882;28;20396;-69
2022/12/12 12:11:23;;;;;;;41.28;20.13;;;1.80;99.90;;;;;;5060333;28;20108;-69
2022/12/12 12:14:08;;;;;;;43.92;20.45;;;1.80;99.90;;;;;;5071471;28;20463;-70
2022/12/12 12:16:34;;;;;;;39.75;19.42;;;1.80;99.90;;;;;;5061725;28;20035;-70
2022/12/12 12:19:13;;;;;;;45.53;21.23;;;1.80;99.90;;;;;;5058255;28;20017;-70
2022/12/12 12:21:41;;;;;;;40.60;19.77;;;1.80;99.90;;;;;;5064454;28;20025;-70
2022/12/12 12:24:33;;;;;;;41.22;20.42;;;1.90;99.90;;;;;;5064098;28;20074;-70
2022/12/12 12:27:07;;;;;;;42.20;19.67;;;1.90;99.90;;;;;;5063784;28;20028;-70
2022/12/12 12:29:55;;;;;;;44.77;20.33;;;1.90;99.90;;;;;;5067023;28;20036;-70
2022/12/12 12:32:48;;;;;;;41.45;19.85;;;1.90;99.90;;;;;;5066818;28;20025;-70
2022/12/12 12:35:22;;;;;;;38.00;18.63;;;2.00;99.90;;;;;;5081121;28;20055;-70
2022/12/12 12:38:25;;;;;;;46.50;20.48;;;2.00;99.90;;;;;;5059122;28;20017;-69
2022/12/12 12:41:22;;;;;;;40.90;20.02;;;2.00;99.90;;;;;;5062624;28;20385;-70
2022/12/12 12:44:06;;;;;;;41.05;19.75;;;2.00;99.90;;;;;;5047674;28;20055;-70
2022/12/12 12:46:45;;;;;;;37.75;20.33;;;2.10;99.90;;;;;;5059958;28;20082;-70
2022/12/12 12:49:29;;;;;;;47.13;21.00;;;2.00;99.90;;;;;;5063105;28;20029;-70
2022/12/12 12:52:25;;;;;;;43.88;19.73;;;2.10;99.90;;;;;;5054105;28;20029;-69
2022/12/12 12:54:55;;;;;;;41.65;20.13;;;2.10;99.90;;;;;;5064874;28;20040;-70
2022/12/12 12:57:28;;;;;;;42.28;19.85;;;2.10;99.90;;;;;;5066030;28;20036;-69
2022/12/12 12:59:59;;;;;;;41.13;19.75;;;2.10;99.90;;;;;;5053989;28;20036;-70
2022/12/12 13:02:46;;;;;;;40.00;19.38;;;2.20;99.90;;;;;;5056786;28;20123;-69
2022/12/12 13:05:21;;;;;;;37.63;18.35;;;2.20;99.90;;;;;;5058733;28;20032;-70
2022/12/12 13:07:51;;;;;;;;;;;2.20;99.90;;;;;;5072247;28;20028;-70